sensor_id;sensor_type;location;lat;lon;timestamp;P1;durP1;ratioP1;P2;durP2;ratioP2
9372;SDS011;10838;52.350;9.790;2023-06-10T00:01:30;5.13;;;4.20;;
9372;SDS011;10838;52.350;9.790;2023-06-10T00:03:58;4.67;;;3.47;;
9372;SDS011;10838;52.350;9.790;2023-06-10T00:06:24;4.07;;;3.67;;
9372;SDS011;10838;52.350;9.790;2023-06-10T00:08:51;4.77;;;3.60;;
9372;SDS011;10838;52.350;9.790;2023-06-10T00:11:18;11.93;;;4.00;;
9372;SDS011;10838;52.350;9.790;2023-06-10T00:13:45;4.90;;;3.67;;
9372;SDS011;10838;52.350;9.790;2023-06-10T00:16:11;6.27;;;3.57;;
9372;SDS011;10838;52.350;9.790;2023-06-10T00:18:39;4.47;;;4.07;;
9372;SDS011;10838;52.350;9.790;2023-06-10T00:21:06;4.27;;;3.53;;
9372;SDS011;10838;52.350;9.790;2023-06-10T00:23:33;6.97;;;3.83;;
9372;SDS011;10838;52.350;9.790;2023-06-10T00:26:02;5.43;;;4.00;;
9372;SDS011;10838;52.350;9.790;2023-06-10T00:28:29;5.10;;;4.30;;
9372;SDS011;10838;52.350;9.790;2023-06-10T00:30:55;5.83;;;3.83;;
9372;SDS011;10838;52.350;9.790;2023-06-10T00:33:22;8.97;;;4.13;;
9372;SDS011;10838;52.350;9.790;2023-06-10T00:35:50;5.53;;;3.90;;
9372;SDS011;10838;52.350;9.790;2023-06-10T00:38:17;9.13;;;3.77;;
9372;SDS011;10838;52.350;9.790;2023-06-10T00:40:43;7.37;;;4.07;;
9372;SDS011;10838;52.350;9.790;2023-06-10T00:43:10;4.13;;;3.73;;
9372;SDS011;10838;52.350;9.790;2023-06-10T00:45:37;6.10;;;3.63;;
9372;SDS011;10838;52.350;9.790;2023-06-10T00:48:03;5.73;;;4.17;;
9372;SDS011;10838;52.350;9.790;2023-06-10T00:50:30;6.43;;;3.53;;
9372;SDS011;10838;52.350;9.790;2023-06-10T00:52:59;9.30;;;3.67;;
9372;SDS011;10838;52.350;9.790;2023-06-10T00:55:26;4.80;;;3.97;;
9372;SDS011;10838;52.350;9.790;2023-06-10T00:57:53;7.40;;;3.83;;
9372;SDS011;10838;52.350;9.790;2023-06-10T01:00:19;5.20;;;3.57;;
9372;SDS011;10838;52.350;9.790;2023-06-10T01:02:46;4.73;;;3.90;;
9372;SDS011;10838;52.350;9.790;2023-06-10T01:05:14;9.17;;;4.17;;
9372;SDS011;10838;52.350;9.790;2023-06-10T01:07:43;4.50;;;3.50;;
9372;SDS011;10838;52.350;9.790;2023-06-10T01:10:19;7.93;;;3.87;;
9372;SDS011;10838;52.350;9.790;2023-06-10T01:12:52;7.60;;;3.90;;
9372;SDS011;10838;52.350;9.790;2023-06-10T01:15:24;5.40;;;3.93;;
9372;SDS011;10838;52.350;9.790;2023-06-10T01:17:54;5.87;;;3.90;;
9372;SDS011;10838;52.350;9.790;2023-06-10T01:20:22;3.83;;;3.20;;
9372;SDS011;10838;52.350;9.790;2023-06-10T01:22:53;7.77;;;3.97;;
9372;SDS011;10838;52.350;9.790;2023-06-10T01:25:20;6.10;;;3.40;;
9372;SDS011;10838;52.350;9.790;2023-06-10T01:27:52;8.60;;;4.13;;
9372;SDS011;10838;52.350;9.790;2023-06-10T01:30:22;6.50;;;3.90;;
9372;SDS011;10838;52.350;9.790;2023-06-10T01:32:54;7.73;;;4.13;;
9372;SDS011;10838;52.350;9.790;2023-06-10T01:35:24;6.17;;;3.90;;
9372;SDS011;10838;52.350;9.790;2023-06-10T01:37:53;4.30;;;3.33;;
9372;SDS011;10838;52.350;9.790;2023-06-10T01:40:23;8.30;;;4.10;;
9372;SDS011;10838;52.350;9.790;2023-06-10T01:42:50;12.93;;;4.27;;
9372;SDS011;10838;52.350;9.790;2023-06-10T01:45:18;12.50;;;4.13;;
9372;SDS011;10838;52.350;9.790;2023-06-10T01:47:44;5.47;;;3.70;;
9372;SDS011;10838;52.350;9.790;2023-06-10T01:50:11;7.17;;;3.53;;
9372;SDS011;10838;52.350;9.790;2023-06-10T01:52:38;4.90;;;3.87;;
9372;SDS011;10838;52.350;9.790;2023-06-10T01:55:06;7.40;;;3.67;;
9372;SDS011;10838;52.350;9.790;2023-06-10T01:57:33;11.07;;;3.93;;
9372;SDS011;10838;52.350;9.790;2023-06-10T01:59:59;9.50;;;3.97;;
9372;SDS011;10838;52.350;9.790;2023-06-10T02:02:26;6.47;;;3.83;;
9372;SDS011;10838;52.350;9.790;2023-06-10T02:04:52;7.03;;;3.63;;
9372;SDS011;10838;52.350;9.790;2023-06-10T02:07:20;4.37;;;3.97;;
9372;SDS011;10838;52.350;9.790;2023-06-10T02:09:46;6.97;;;3.97;;
9372;SDS011;10838;52.350;9.790;2023-06-10T02:12:14;4.47;;;3.87;;
9372;SDS011;10838;52.350;9.790;2023-06-10T02:14:41;5.60;;;3.30;;
9372;SDS011;10838;52.350;9.790;2023-06-10T02:17:07;5.57;;;3.60;;
9372;SDS011;10838;52.350;9.790;2023-06-10T02:19:37;7.87;;;3.63;;
9372;SDS011;10838;52.350;9.790;2023-06-10T02:22:07;5.53;;;4.00;;
9372;SDS011;10838;52.350;9.790;2023-06-10T02:24:35;6.23;;;3.70;;
9372;SDS011;10838;52.350;9.790;2023-06-10T02:27:02;5.03;;;3.60;;
9372;SDS011;10838;52.350;9.790;2023-06-10T02:29:32;7.33;;;4.00;;
9372;SDS011;10838;52.350;9.790;2023-06-10T02:31:59;6.17;;;4.70;;
9372;SDS011;10838;52.350;9.790;2023-06-10T02:34:26;8.63;;;3.90;;
9372;SDS011;10838;52.350;9.790;2023-06-10T02:36:52;6.13;;;4.07;;
9372;SDS011;10838;52.350;9.790;2023-06-10T02:39:19;7.63;;;4.07;;
9372;SDS011;10838;52.350;9.790;2023-06-10T02:41:45;8.03;;;4.43;;
9372;SDS011;10838;52.350;9.790;2023-06-10T02:44:12;7.90;;;4.50;;
9372;SDS011;10838;52.350;9.790;2023-06-10T02:46:40;13.90;;;4.23;;
9372;SDS011;10838;52.350;9.790;2023-06-10T02:49:06;9.97;;;4.80;;
9372;SDS011;10838;52.350;9.790;2023-06-10T02:51:33;8.97;;;4.30;;
9372;SDS011;10838;52.350;9.790;2023-06-10T02:54:00;9.97;;;4.43;;
9372;SDS011;10838;52.350;9.790;2023-06-10T02:56:27;7.23;;;4.13;;
9372;SDS011;10838;52.350;9.790;2023-06-10T02:58:53;7.53;;;4.40;;
9372;SDS011;10838;52.350;9.790;2023-06-10T03:01:20;9.53;;;4.60;;
9372;SDS011;10838;52.350;9.790;2023-06-10T03:03:48;8.43;;;4.17;;
9372;SDS011;10838;52.350;9.790;2023-06-10T03:06:15;7.57;;;4.30;;
9372;SDS011;10838;52.350;9.790;2023-06-10T03:08:42;10.37;;;4.33;;
9372;SDS011;10838;52.350;9.790;2023-06-10T03:11:10;6.40;;;4.10;;
9372;SDS011;10838;52.350;9.790;2023-06-10T03:13:38;9.03;;;4.67;;
9372;SDS011;10838;52.350;9.790;2023-06-10T03:16:04;10.23;;;4.93;;
9372;SDS011;10838;52.350;9.790;2023-06-10T03:18:31;7.23;;;4.70;;
9372;SDS011;10838;52.350;9.790;2023-06-10T03:20:59;12.57;;;4.50;;
9372;SDS011;10838;52.350;9.790;2023-06-10T03:23:26;9.27;;;4.50;;
9372;SDS011;10838;52.350;9.790;2023-06-10T03:25:54;6.23;;;4.20;;
9372;SDS011;10838;52.350;9.790;2023-06-10T03:28:20;9.27;;;4.87;;
9372;SDS011;10838;52.350;9.790;2023-06-10T03:30:47;5.53;;;4.60;;
9372;SDS011;10838;52.350;9.790;2023-06-10T03:33:14;8.80;;;5.20;;
9372;SDS011;10838;52.350;9.790;2023-06-10T03:35:40;9.63;;;4.97;;
9372;SDS011;10838;52.350;9.790;2023-06-10T03:38:08;8.37;;;4.40;;
9372;SDS011;10838;52.350;9.790;2023-06-10T03:40:35;7.40;;;4.40;;
9372;SDS011;10838;52.350;9.790;2023-06-10T03:43:02;8.63;;;4.70;;
9372;SDS011;10838;52.350;9.790;2023-06-10T03:45:29;7.00;;;4.77;;
9372;SDS011;10838;52.350;9.790;2023-06-10T03:47:55;8.33;;;5.13;;
9372;SDS011;10838;52.350;9.790;2023-06-10T03:50:22;9.23;;;4.67;;
9372;SDS011;10838;52.350;9.790;2023-06-10T03:52:49;13.13;;;5.20;;
9372;SDS011;10838;52.350;9.790;2023-06-10T03:55:18;12.13;;;5.33;;
9372;SDS011;10838;52.350;9.790;2023-06-10T03:57:46;9.87;;;5.20;;
9372;SDS011;10838;52.350;9.790;2023-06-10T04:00:14;10.70;;;4.93;;
9372;SDS011;10838;52.350;9.790;2023-06-10T04:02:41;8.33;;;5.67;;
9372;SDS011;10838;52.350;9.790;2023-06-10T04:05:10;9.70;;;5.77;;
9372;SDS011;10838;52.350;9.790;2023-06-10T04:07:37;9.40;;;5.63;;
9372;SDS011;10838;52.350;9.790;2023-06-10T04:10:06;9.17;;;5.77;;
9372;SDS011;10838;52.350;9.790;2023-06-10T04:12:35;13.53;;;5.83;;
9372;SDS011;10838;52.350;9.790;2023-06-10T04:15:01;10.80;;;5.13;;
9372;SDS011;10838;52.350;9.790;2023-06-10T04:17:28;10.17;;;5.83;;
9372;SDS011;10838;52.350;9.790;2023-06-10T04:19:55;8.30;;;5.60;;
9372;SDS011;10838;52.350;9.790;2023-06-10T04:22:22;7.60;;;5.50;;
9372;SDS011;10838;52.350;9.790;2023-06-10T04:24:49;16.20;;;6.60;;
9372;SDS011;10838;52.350;9.790;2023-06-10T04:27:16;9.73;;;5.90;;
9372;SDS011;10838;52.350;9.790;2023-06-10T04:29:44;8.47;;;6.10;;
9372;SDS011;10838;52.350;9.790;2023-06-10T04:32:10;11.20;;;5.90;;
9372;SDS011;10838;52.350;9.790;2023-06-10T04:34:37;10.83;;;5.87;;
9372;SDS011;10838;52.350;9.790;2023-06-10T04:37:05;6.00;;;5.40;;
9372;SDS011;10838;52.350;9.790;2023-06-10T04:39:32;9.33;;;5.67;;
9372;SDS011;10838;52.350;9.790;2023-06-10T04:41:58;9.70;;;5.63;;
9372;SDS011;10838;52.350;9.790;2023-06-10T04:44:25;8.67;;;5.50;;
9372;SDS011;10838;52.350;9.790;2023-06-10T04:46:53;10.73;;;5.50;;
9372;SDS011;10838;52.350;9.790;2023-06-10T04:49:20;9.57;;;5.50;;
9372;SDS011;10838;52.350;9.790;2023-06-10T04:51:47;9.50;;;5.37;;
9372;SDS011;10838;52.350;9.790;2023-06-10T04:54:13;7.97;;;5.27;;
9372;SDS011;10838;52.350;9.790;2023-06-10T04:56:40;7.53;;;5.57;;
9372;SDS011;10838;52.350;9.790;2023-06-10T04:59:07;11.67;;;5.97;;
9372;SDS011;10838;52.350;9.790;2023-06-10T05:01:34;9.53;;;5.43;;
9372;SDS011;10838;52.350;9.790;2023-06-10T05:04:02;9.43;;;5.27;;
9372;SDS011;10838;52.350;9.790;2023-06-10T05:06:29;8.43;;;4.83;;
9372;SDS011;10838;52.350;9.790;2023-06-10T05:08:56;12.27;;;5.10;;
9372;SDS011;10838;52.350;9.790;2023-06-10T05:11:22;13.53;;;5.53;;
9372;SDS011;10838;52.350;9.790;2023-06-10T05:13:49;7.63;;;5.30;;
9372;SDS011;10838;52.350;9.790;2023-06-10T05:16:15;13.10;;;5.87;;
9372;SDS011;10838;52.350;9.790;2023-06-10T05:18:42;11.37;;;5.30;;
9372;SDS011;10838;52.350;9.790;2023-06-10T05:21:10;11.27;;;6.03;;
9372;SDS011;10838;52.350;9.790;2023-06-10T05:23:36;11.37;;;5.53;;
9372;SDS011;10838;52.350;9.790;2023-06-10T05:26:03;10.60;;;5.77;;
9372;SDS011;10838;52.350;9.790;2023-06-10T05:28:29;11.13;;;5.80;;
9372;SDS011;10838;52.350;9.790;2023-06-10T05:30:56;9.70;;;6.00;;
9372;SDS011;10838;52.350;9.790;2023-06-10T05:33:23;11.37;;;5.07;;
9372;SDS011;10838;52.350;9.790;2023-06-10T05:35:49;10.67;;;6.10;;
9372;SDS011;10838;52.350;9.790;2023-06-10T05:38:17;10.60;;;6.17;;
9372;SDS011;10838;52.350;9.790;2023-06-10T05:40:44;9.63;;;6.50;;
9372;SDS011;10838;52.350;9.790;2023-06-10T05:43:11;8.73;;;5.60;;
9372;SDS011;10838;52.350;9.790;2023-06-10T05:45:38;8.47;;;6.07;;
9372;SDS011;10838;52.350;9.790;2023-06-10T05:48:05;9.87;;;5.53;;
9372;SDS011;10838;52.350;9.790;2023-06-10T05:50:32;9.90;;;5.27;;
9372;SDS011;10838;52.350;9.790;2023-06-10T05:53:03;9.83;;;6.37;;
9372;SDS011;10838;52.350;9.790;2023-06-10T05:55:33;11.23;;;6.00;;
9372;SDS011;10838;52.350;9.790;2023-06-10T05:57:59;10.10;;;5.87;;
9372;SDS011;10838;52.350;9.790;2023-06-10T06:00:26;8.53;;;5.57;;
9372;SDS011;10838;52.350;9.790;2023-06-10T06:02:53;11.43;;;5.87;;
9372;SDS011;10838;52.350;9.790;2023-06-10T06:05:22;8.40;;;5.70;;
9372;SDS011;10838;52.350;9.790;2023-06-10T06:07:48;10.73;;;5.83;;
9372;SDS011;10838;52.350;9.790;2023-06-10T06:10:16;8.77;;;5.30;;
9372;SDS011;10838;52.350;9.790;2023-06-10T06:12:45;11.17;;;6.13;;
9372;SDS011;10838;52.350;9.790;2023-06-10T06:15:11;11.77;;;6.10;;
9372;SDS011;10838;52.350;9.790;2023-06-10T06:17:38;9.90;;;6.00;;
9372;SDS011;10838;52.350;9.790;2023-06-10T06:20:05;15.23;;;7.33;;
9372;SDS011;10838;52.350;9.790;2023-06-10T06:22:32;9.77;;;5.80;;
9372;SDS011;10838;52.350;9.790;2023-06-10T06:24:59;6.40;;;5.57;;
9372;SDS011;10838;52.350;9.790;2023-06-10T06:27:25;16.00;;;6.07;;
9372;SDS011;10838;52.350;9.790;2023-06-10T06:29:53;11.03;;;5.80;;
9372;SDS011;10838;52.350;9.790;2023-06-10T06:32:20;15.57;;;8.93;;
9372;SDS011;10838;52.350;9.790;2023-06-10T06:34:47;26.90;;;18.83;;
9372;SDS011;10838;52.350;9.790;2023-06-10T06:37:19;25.37;;;19.40;;
9372;SDS011;10838;52.350;9.790;2023-06-10T06:39:46;15.60;;;12.87;;
9372;SDS011;10838;52.350;9.790;2023-06-10T06:42:12;15.53;;;11.20;;
9372;SDS011;10838;52.350;9.790;2023-06-10T06:44:39;10.80;;;6.80;;
9372;SDS011;10838;52.350;9.790;2023-06-10T06:47:07;13.37;;;6.50;;
9372;SDS011;10838;52.350;9.790;2023-06-10T06:49:34;8.67;;;6.00;;
9372;SDS011;10838;52.350;9.790;2023-06-10T06:52:00;6.37;;;5.80;;
9372;SDS011;10838;52.350;9.790;2023-06-10T06:54:27;6.83;;;6.07;;
9372;SDS011;10838;52.350;9.790;2023-06-10T06:56:54;9.13;;;7.20;;
9372;SDS011;10838;52.350;9.790;2023-06-10T06:59:20;7.13;;;5.70;;
9372;SDS011;10838;52.350;9.790;2023-06-10T07:01:47;8.13;;;5.40;;
9372;SDS011;10838;52.350;9.790;2023-06-10T07:04:15;11.83;;;6.23;;
9372;SDS011;10838;52.350;9.790;2023-06-10T07:06:42;7.27;;;5.30;;
9372;SDS011;10838;52.350;9.790;2023-06-10T07:09:08;8.33;;;5.70;;
9372;SDS011;10838;52.350;9.790;2023-06-10T07:11:35;8.47;;;5.57;;
9372;SDS011;10838;52.350;9.790;2023-06-10T07:14:02;8.60;;;5.53;;
9372;SDS011;10838;52.350;9.790;2023-06-10T07:16:28;7.77;;;5.40;;
9372;SDS011;10838;52.350;9.790;2023-06-10T07:18:55;8.17;;;5.53;;
9372;SDS011;10838;52.350;9.790;2023-06-10T07:21:23;9.80;;;5.30;;
9372;SDS011;10838;52.350;9.790;2023-06-10T07:23:49;8.43;;;5.17;;
9372;SDS011;10838;52.350;9.790;2023-06-10T07:26:18;8.27;;;5.30;;
9372;SDS011;10838;52.350;9.790;2023-06-10T07:28:45;8.83;;;5.30;;
9372;SDS011;10838;52.350;9.790;2023-06-10T07:31:11;7.60;;;5.17;;
9372;SDS011;10838;52.350;9.790;2023-06-10T07:33:38;7.57;;;5.20;;
9372;SDS011;10838;52.350;9.790;2023-06-10T07:36:05;7.50;;;5.03;;
9372;SDS011;10838;52.350;9.790;2023-06-10T07:38:33;9.40;;;5.57;;
9372;SDS011;10838;52.350;9.790;2023-06-10T07:41:00;9.13;;;5.10;;
9372;SDS011;10838;52.350;9.790;2023-06-10T07:43:26;7.50;;;5.07;;
9372;SDS011;10838;52.350;9.790;2023-06-10T07:45:53;8.67;;;4.90;;
9372;SDS011;10838;52.350;9.790;2023-06-10T07:48:19;7.00;;;4.93;;
9372;SDS011;10838;52.350;9.790;2023-06-10T07:50:46;10.77;;;5.10;;
9372;SDS011;10838;52.350;9.790;2023-06-10T07:53:12;13.10;;;5.50;;
9372;SDS011;10838;52.350;9.790;2023-06-10T07:55:40;9.40;;;5.43;;
9372;SDS011;10838;52.350;9.790;2023-06-10T07:58:07;7.97;;;4.50;;
9372;SDS011;10838;52.350;9.790;2023-06-10T08:00:33;8.47;;;5.10;;
9372;SDS011;10838;52.350;9.790;2023-06-10T08:03:00;7.50;;;4.87;;
9372;SDS011;10838;52.350;9.790;2023-06-10T08:05:27;7.27;;;5.07;;
9372;SDS011;10838;52.350;9.790;2023-06-10T08:07:54;6.67;;;4.70;;
9372;SDS011;10838;52.350;9.790;2023-06-10T08:10:20;7.73;;;5.20;;
9372;SDS011;10838;52.350;9.790;2023-06-10T08:12:48;11.03;;;5.10;;
9372;SDS011;10838;52.350;9.790;2023-06-10T08:15:15;8.63;;;4.87;;
9372;SDS011;10838;52.350;9.790;2023-06-10T08:17:41;13.80;;;5.77;;
9372;SDS011;10838;52.350;9.790;2023-06-10T08:20:08;8.90;;;5.07;;
9372;SDS011;10838;52.350;9.790;2023-06-10T08:22:35;11.80;;;5.20;;
9372;SDS011;10838;52.350;9.790;2023-06-10T08:25:01;8.77;;;5.27;;
9372;SDS011;10838;52.350;9.790;2023-06-10T08:27:28;9.10;;;5.07;;
9372;SDS011;10838;52.350;9.790;2023-06-10T08:29:56;11.30;;;4.40;;
9372;SDS011;10838;52.350;9.790;2023-06-10T08:32:25;7.77;;;4.87;;
9372;SDS011;10838;52.350;9.790;2023-06-10T08:34:51;5.30;;;4.77;;
9372;SDS011;10838;52.350;9.790;2023-06-10T08:37:18;6.33;;;4.47;;
9372;SDS011;10838;52.350;9.790;2023-06-10T08:39:45;6.70;;;5.10;;
9372;SDS011;10838;52.350;9.790;2023-06-10T08:42:14;6.85;;;4.75;;
9372;SDS011;10838;52.350;9.790;2023-06-10T08:44:47;7.82;;;4.40;;
9372;SDS011;10838;52.350;9.790;2023-06-10T08:47:20;4.82;;;4.07;;
9372;SDS011;10838;52.350;9.790;2023-06-10T08:49:49;7.15;;;4.75;;
9372;SDS011;10838;52.350;9.790;2023-06-10T08:52:19;6.97;;;4.72;;
9372;SDS011;10838;52.350;9.790;2023-06-10T08:54:48;8.68;;;5.15;;
9372;SDS011;10838;52.350;9.790;2023-06-10T08:57:17;6.13;;;4.88;;
9372;SDS011;10838;52.350;9.790;2023-06-10T08:59:46;6.53;;;4.82;;
9372;SDS011;10838;52.350;9.790;2023-06-10T09:02:14;6.60;;;4.93;;
9372;SDS011;10838;52.350;9.790;2023-06-10T09:04:46;8.20;;;5.03;;
9372;SDS011;10838;52.350;9.790;2023-06-10T09:07:13;6.65;;;4.95;;
9372;SDS011;10838;52.350;9.790;2023-06-10T09:09:41;7.28;;;4.47;;
9372;SDS011;10838;52.350;9.790;2023-06-10T09:12:09;8.65;;;4.78;;
9372;SDS011;10838;52.350;9.790;2023-06-10T09:14:36;8.75;;;4.85;;
9372;SDS011;10838;52.350;9.790;2023-06-10T09:17:03;5.20;;;4.75;;
9372;SDS011;10838;52.350;9.790;2023-06-10T09:19:31;5.82;;;4.60;;
9372;SDS011;10838;52.350;9.790;2023-06-10T09:21:59;5.82;;;4.38;;
9372;SDS011;10838;52.350;9.790;2023-06-10T09:24:26;6.00;;;4.85;;
9372;SDS011;10838;52.350;9.790;2023-06-10T09:27:01;5.40;;;4.65;;
9372;SDS011;10838;52.350;9.790;2023-06-10T09:29:29;8.48;;;4.82;;
9372;SDS011;10838;52.350;9.790;2023-06-10T09:31:55;7.22;;;4.60;;
9372;SDS011;10838;52.350;9.790;2023-06-10T09:34:24;5.65;;;4.68;;
9372;SDS011;10838;52.350;9.790;2023-06-10T09:36:51;6.00;;;4.85;;
9372;SDS011;10838;52.350;9.790;2023-06-10T09:39:20;10.45;;;4.60;;
9372;SDS011;10838;52.350;9.790;2023-06-10T09:41:47;8.60;;;4.80;;
9372;SDS011;10838;52.350;9.790;2023-06-10T09:44:14;6.82;;;4.95;;
9372;SDS011;10838;52.350;9.790;2023-06-10T09:46:41;6.30;;;4.65;;
9372;SDS011;10838;52.350;9.790;2023-06-10T09:49:08;9.23;;;4.93;;
9372;SDS011;10838;52.350;9.790;2023-06-10T09:51:35;7.35;;;4.30;;
9372;SDS011;10838;52.350;9.790;2023-06-10T09:54:02;6.07;;;4.65;;
9372;SDS011;10838;52.350;9.790;2023-06-10T09:56:34;9.00;;;4.75;;
9372;SDS011;10838;52.350;9.790;2023-06-10T09:59:01;6.15;;;4.95;;
9372;SDS011;10838;52.350;9.790;2023-06-10T10:01:29;8.43;;;5.60;;
9372;SDS011;10838;52.350;9.790;2023-06-10T10:03:57;8.73;;;5.28;;
9372;SDS011;10838;52.350;9.790;2023-06-10T10:06:24;6.47;;;4.68;;
9372;SDS011;10838;52.350;9.790;2023-06-10T10:08:51;10.20;;;4.88;;
9372;SDS011;10838;52.350;9.790;2023-06-10T10:11:18;9.82;;;4.88;;
9372;SDS011;10838;52.350;9.790;2023-06-10T10:13:48;7.65;;;4.72;;
9372;SDS011;10838;52.350;9.790;2023-06-10T10:16:16;10.55;;;5.15;;
9372;SDS011;10838;52.350;9.790;2023-06-10T10:18:45;6.82;;;4.60;;
9372;SDS011;10838;52.350;9.790;2023-06-10T10:21:15;12.07;;;5.13;;
9372;SDS011;10838;52.350;9.790;2023-06-10T10:23:51;7.53;;;5.10;;
9372;SDS011;10838;52.350;9.790;2023-06-10T10:26:20;7.68;;;5.22;;
9372;SDS011;10838;52.350;9.790;2023-06-10T10:28:51;6.53;;;5.50;;
9372;SDS011;10838;52.350;9.790;2023-06-10T10:31:24;5.18;;;4.72;;
9372;SDS011;10838;52.350;9.790;2023-06-10T10:33:58;8.07;;;4.80;;
9372;SDS011;10838;52.350;9.790;2023-06-10T10:36:25;10.73;;;5.53;;
9372;SDS011;10838;52.350;9.790;2023-06-10T10:38:52;9.75;;;5.30;;
9372;SDS011;10838;52.350;9.790;2023-06-10T10:41:20;9.75;;;5.32;;
9372;SDS011;10838;52.350;9.790;2023-06-10T10:43:49;5.57;;;4.90;;
9372;SDS011;10838;52.350;9.790;2023-06-10T10:46:17;12.18;;;5.55;;
9372;SDS011;10838;52.350;9.790;2023-06-10T10:48:44;8.18;;;5.82;;
9372;SDS011;10838;52.350;9.790;2023-06-10T10:51:11;7.38;;;5.50;;
9372;SDS011;10838;52.350;9.790;2023-06-10T10:53:41;8.35;;;5.40;;
9372;SDS011;10838;52.350;9.790;2023-06-10T10:56:12;7.85;;;5.68;;
9372;SDS011;10838;52.350;9.790;2023-06-10T10:58:40;10.13;;;5.75;;
9372;SDS011;10838;52.350;9.790;2023-06-10T11:01:12;11.95;;;5.50;;
9372;SDS011;10838;52.350;9.790;2023-06-10T11:03:42;10.98;;;5.90;;
9372;SDS011;10838;52.350;9.790;2023-06-10T11:06:11;10.95;;;5.72;;
9372;SDS011;10838;52.350;9.790;2023-06-10T11:08:46;7.13;;;5.70;;
9372;SDS011;10838;52.350;9.790;2023-06-10T11:11:20;8.82;;;5.68;;
9372;SDS011;10838;52.350;9.790;2023-06-10T11:14:06;10.02;;;6.18;;
9372;SDS011;10838;52.350;9.790;2023-06-10T11:16:39;7.32;;;5.63;;
9372;SDS011;10838;52.350;9.790;2023-06-10T11:19:07;7.97;;;5.57;;
9372;SDS011;10838;52.350;9.790;2023-06-10T11:21:37;10.63;;;5.97;;
9372;SDS011;10838;52.350;9.790;2023-06-10T11:24:18;8.63;;;5.75;;
9372;SDS011;10838;52.350;9.790;2023-06-10T11:26:45;9.13;;;6.03;;
9372;SDS011;10838;52.350;9.790;2023-06-10T11:29:11;7.40;;;5.70;;
9372;SDS011;10838;52.350;9.790;2023-06-10T11:31:43;9.68;;;6.30;;
9372;SDS011;10838;52.350;9.790;2023-06-10T11:34:11;7.40;;;5.95;;
9372;SDS011;10838;52.350;9.790;2023-06-10T11:36:39;9.43;;;6.07;;
9372;SDS011;10838;52.350;9.790;2023-06-10T11:39:08;10.70;;;5.80;;
9372;SDS011;10838;52.350;9.790;2023-06-10T11:41:36;7.13;;;5.63;;
9372;SDS011;10838;52.350;9.790;2023-06-10T11:44:04;7.97;;;5.78;;
9372;SDS011;10838;52.350;9.790;2023-06-10T11:46:34;7.72;;;6.10;;
9372;SDS011;10838;52.350;9.790;2023-06-10T11:49:02;8.13;;;5.88;;
9372;SDS011;10838;52.350;9.790;2023-06-10T11:51:32;9.05;;;6.50;;
9372;SDS011;10838;52.350;9.790;2023-06-10T11:54:00;8.48;;;6.07;;
9372;SDS011;10838;52.350;9.790;2023-06-10T11:56:27;11.52;;;6.07;;
9372;SDS011;10838;52.350;9.790;2023-06-10T11:58:55;7.82;;;6.43;;
9372;SDS011;10838;52.350;9.790;2023-06-10T12:01:24;10.85;;;5.97;;
9372;SDS011;10838;52.350;9.790;2023-06-10T12:04:00;7.70;;;6.03;;
9372;SDS011;10838;52.350;9.790;2023-06-10T12:06:39;8.70;;;6.32;;
9372;SDS011;10838;52.350;9.790;2023-06-10T12:09:13;9.98;;;6.47;;
9372;SDS011;10838;52.350;9.790;2023-06-10T12:11:44;10.30;;;6.38;;
9372;SDS011;10838;52.350;9.790;2023-06-10T12:14:11;13.48;;;6.93;;
9372;SDS011;10838;52.350;9.790;2023-06-10T12:16:38;9.18;;;6.38;;
9372;SDS011;10838;52.350;9.790;2023-06-10T12:19:06;9.57;;;6.35;;
9372;SDS011;10838;52.350;9.790;2023-06-10T12:21:32;6.90;;;6.30;;
9372;SDS011;10838;52.350;9.790;2023-06-10T12:24:01;9.45;;;7.63;;
9372;SDS011;10838;52.350;9.790;2023-06-10T12:26:42;7.88;;;6.18;;
9372;SDS011;10838;52.350;9.790;2023-06-10T12:29:16;7.85;;;6.28;;
9372;SDS011;10838;52.350;9.790;2023-06-10T12:31:54;7.25;;;6.55;;
9372;SDS011;10838;52.350;9.790;2023-06-10T12:34:31;9.07;;;6.75;;
9372;SDS011;10838;52.350;9.790;2023-06-10T12:37:00;7.55;;;6.68;;
9372;SDS011;10838;52.350;9.790;2023-06-10T12:39:29;10.13;;;6.45;;
9372;SDS011;10838;52.350;9.790;2023-06-10T12:41:56;12.23;;;6.68;;
9372;SDS011;10838;52.350;9.790;2023-06-10T12:44:28;9.60;;;7.10;;
9372;SDS011;10838;52.350;9.790;2023-06-10T12:46:55;8.00;;;6.03;;
9372;SDS011;10838;52.350;9.790;2023-06-10T12:49:22;8.90;;;6.35;;
9372;SDS011;10838;52.350;9.790;2023-06-10T12:51:50;6.75;;;6.25;;
9372;SDS011;10838;52.350;9.790;2023-06-10T12:54:16;13.57;;;6.78;;
9372;SDS011;10838;52.350;9.790;2023-06-10T12:56:43;11.70;;;6.25;;
9372;SDS011;10838;52.350;9.790;2023-06-10T12:59:10;7.15;;;6.53;;
9372;SDS011;10838;52.350;9.790;2023-06-10T13:01:37;6.88;;;6.32;;
9372;SDS011;10838;52.350;9.790;2023-06-10T13:04:04;8.57;;;6.22;;
9372;SDS011;10838;52.350;9.790;2023-06-10T13:06:32;8.40;;;6.05;;
9372;SDS011;10838;52.350;9.790;2023-06-10T13:09:03;6.63;;;6.03;;
9372;SDS011;10838;52.350;9.790;2023-06-10T13:11:31;8.13;;;6.30;;
9372;SDS011;10838;52.350;9.790;2023-06-10T13:13:58;7.63;;;6.50;;
9372;SDS011;10838;52.350;9.790;2023-06-10T13:16:25;7.70;;;6.28;;
9372;SDS011;10838;52.350;9.790;2023-06-10T13:18:52;7.80;;;6.07;;
9372;SDS011;10838;52.350;9.790;2023-06-10T13:21:19;6.82;;;6.25;;
9372;SDS011;10838;52.350;9.790;2023-06-10T13:23:46;9.35;;;6.43;;
9372;SDS011;10838;52.350;9.790;2023-06-10T13:26:14;8.90;;;6.45;;
9372;SDS011;10838;52.350;9.790;2023-06-10T13:28:41;9.25;;;6.30;;
9372;SDS011;10838;52.350;9.790;2023-06-10T13:31:08;9.63;;;6.63;;
9372;SDS011;10838;52.350;9.790;2023-06-10T13:33:34;9.38;;;6.18;;
9372;SDS011;10838;52.350;9.790;2023-06-10T13:36:01;8.18;;;6.20;;
9372;SDS011;10838;52.350;9.790;2023-06-10T13:38:28;7.18;;;6.30;;
9372;SDS011;10838;52.350;9.790;2023-06-10T13:40:54;8.63;;;6.30;;
9372;SDS011;10838;52.350;9.790;2023-06-10T13:43:22;11.30;;;6.63;;
9372;SDS011;10838;52.350;9.790;2023-06-10T13:45:49;7.35;;;6.47;;
9372;SDS011;10838;52.350;9.790;2023-06-10T13:48:15;10.55;;;6.40;;
9372;SDS011;10838;52.350;9.790;2023-06-10T13:50:43;7.10;;;5.95;;
9372;SDS011;10838;52.350;9.790;2023-06-10T13:53:10;9.07;;;6.35;;
9372;SDS011;10838;52.350;9.790;2023-06-10T13:55:37;12.52;;;6.55;;
9372;SDS011;10838;52.350;9.790;2023-06-10T13:58:03;7.55;;;5.90;;
9372;SDS011;10838;52.350;9.790;2023-06-10T14:00:31;7.50;;;5.82;;
9372;SDS011;10838;52.350;9.790;2023-06-10T14:02:58;7.38;;;6.68;;
9372;SDS011;10838;52.350;9.790;2023-06-10T14:05:25;6.95;;;6.30;;
9372;SDS011;10838;52.350;9.790;2023-06-10T14:07:52;9.95;;;6.18;;
9372;SDS011;10838;52.350;9.790;2023-06-10T14:10:18;6.90;;;6.30;;
9372;SDS011;10838;52.350;9.790;2023-06-10T14:12:45;8.82;;;6.15;;
9372;SDS011;10838;52.350;9.790;2023-06-10T14:15:11;6.68;;;5.70;;
9372;SDS011;10838;52.350;9.790;2023-06-10T14:17:39;8.93;;;6.75;;
9372;SDS011;10838;52.350;9.790;2023-06-10T14:20:06;9.57;;;5.90;;
9372;SDS011;10838;52.350;9.790;2023-06-10T14:22:33;7.72;;;6.03;;
9372;SDS011;10838;52.350;9.790;2023-06-10T14:25:00;9.40;;;6.28;;
9372;SDS011;10838;52.350;9.790;2023-06-10T14:27:26;10.70;;;6.63;;
9372;SDS011;10838;52.350;9.790;2023-06-10T14:29:53;9.38;;;6.35;;
9372;SDS011;10838;52.350;9.790;2023-06-10T14:32:19;7.55;;;6.40;;
9372;SDS011;10838;52.350;9.790;2023-06-10T14:34:47;7.25;;;6.50;;
9372;SDS011;10838;52.350;9.790;2023-06-10T14:37:14;10.05;;;6.40;;
9372;SDS011;10838;52.350;9.790;2023-06-10T14:39:40;7.05;;;6.07;;
9372;SDS011;10838;52.350;9.790;2023-06-10T14:42:07;10.38;;;6.90;;
9372;SDS011;10838;52.350;9.790;2023-06-10T14:44:35;7.00;;;6.38;;
9372;SDS011;10838;52.350;9.790;2023-06-10T14:47:01;8.90;;;6.72;;
9372;SDS011;10838;52.350;9.790;2023-06-10T14:49:28;7.32;;;6.63;;
9372;SDS011;10838;52.350;9.790;2023-06-10T14:51:56;7.47;;;6.22;;
9372;SDS011;10838;52.350;9.790;2023-06-10T14:54:23;7.68;;;6.28;;
9372;SDS011;10838;52.350;9.790;2023-06-10T14:56:49;7.00;;;6.35;;
9372;SDS011;10838;52.350;9.790;2023-06-10T14:59:16;6.82;;;6.22;;
9372;SDS011;10838;52.350;9.790;2023-06-10T15:01:42;7.30;;;6.60;;